Time;durP1;ratioP1;P1;durP2;ratioP2;P2;SDS_P1;SDS_P2;PMS_P1;PMS_P2;Temp;Humidity;BMP_temperature;BMP_pressure;BME280_temperature;BME280_humidity;BME280_pressure;Samples;Min_cycle;Max_cycle;Signal;HPM_P1;HPM_P2
2023/05/07 00:03:40;;;;;;;3.50;2.90;;;;;;;16.58;46.76;99675.53;10315179;28;20234;-40
2023/05/07 00:08:42;;;;;;;7.43;3.23;;;;;;;16.62;47.87;99709.97;10315402;28;20233;-40
2023/05/07 00:13:44;;;;;;;4.30;3.17;;;;;;;16.91;46.88;99672.38;10320900;28;20886;-40
2023/05/07 00:18:46;;;;;;;3.43;3.13;;;;;;;15.80;48.39;99688.56;10322000;28;20260;-39
2023/05/07 00:23:47;;;;;;;8.10;3.20;;;;;;;17.10;47.00;99673.19;10323428;28;20252;-39
2023/05/07 00:28:49;;;;;;;4.50;3.00;;;;;;;17.34;47.24;99668.66;10321431;28;20239;-39
2023/05/07 00:33:51;;;;;;;3.50;3.20;;;;;;;16.59;48.07;99674.47;10322841;28;20607;-42
2023/05/07 00:38:54;;;;;;;5.17;3.23;;;;;;;16.54;47.75;99661.66;10320533;28;20997;-39
2023/05/07 00:43:56;;;;;;;4.13;2.70;;;;;;;17.66;46.54;99689.19;10318283;28;20254;-39
2023/05/07 00:48:59;;;;;;;3.47;3.17;;;;;;;16.57;47.17;99674.72;10318742;28;20613;-41
2023/05/07 00:54:03;;;;;;;4.47;3.20;;;;;;;16.23;48.08;99695.03;10306210;28;21204;-39
2023/05/07 00:59:05;;;;;;;4.80;3.63;;;;;;;16.79;47.49;99672.34;10271345;28;20234;-39
2023/05/07 01:04:07;;;;;;;3.67;3.10;;;;;;;17.01;47.24;99665.66;10281011;28;20238;-38
2023/05/07 01:09:09;;;;;;;4.33;3.47;;;;;;;16.71;48.02;99690.75;10291898;28;20288;-39
2023/05/07 01:14:11;;;;;;;4.10;3.70;;;;;;;15.58;49.45;99687.31;10318493;28;20263;-39
2023/05/07 01:19:17;;;;;;;4.77;3.40;;;;;;;16.56;48.31;99669.53;10320891;28;20730;-39
2023/05/07 01:24:18;;;;;;;4.73;3.70;;;;;;;15.59;49.92;99708.69;10320534;28;20253;-39
2023/05/07 01:29:20;;;;;;;6.10;3.70;;;;;;;15.90;49.03;99693.47;10315394;28;20233;-39
2023/05/07 01:34:22;;;;;;;5.33;3.80;;;;;;;16.09;48.61;99667.31;10318511;28;20233;-38
2023/05/07 01:39:26;;;;;;;3.87;3.20;;;;;;;16.23;48.43;99690.44;10316844;28;20245;-39
2023/05/07 01:44:28;;;;;;;3.60;3.30;;;;;;;16.05;49.32;99696.63;10313110;28;20230;-39
2023/05/07 01:49:30;;;;;;;5.27;3.70;;;;;;;16.84;47.49;99679.78;10318668;28;20254;-39
2023/05/07 01:54:32;;;;;;;4.47;3.50;;;;;;;16.50;49.19;99692.88;10312607;28;20727;-39
2023/05/07 01:59:34;;;;;;;4.97;3.67;;;;;;;18.33;45.44;99648.22;10314537;28;20237;-38
2023/05/07 02:04:36;;;;;;;5.23;3.27;;;;;;;16.26;48.69;99708.09;10315834;28;20240;-39
2023/05/07 02:09:38;;;;;;;4.63;3.60;;;;;;;16.33;48.45;99689.13;10314217;28;20221;-38
2023/05/07 02:14:39;;;;;;;4.20;3.47;;;;;;;15.77;49.15;99717.88;10316372;28;20233;-38
2023/05/07 02:19:41;;;;;;;4.73;3.63;;;;;;;16.14;49.95;99709.84;10316697;28;20225;-39
2023/05/07 02:24:44;;;;;;;3.63;3.23;;;;;;;15.74;49.79;99721.84;10319445;28;20237;-38
2023/05/07 02:29:45;;;;;;;6.20;3.77;;;;;;;17.03;48.00;99687.88;10315795;28;20255;-40
2023/05/07 02:34:50;;;;;;;3.80;3.40;;;;;;;16.65;47.91;99718.66;10314184;28;20230;-38
2023/05/07 02:39:52;;;;;;;3.70;3.37;;;;;;;14.62;50.73;99671.06;10312354;28;20243;-39
2023/05/07 02:44:54;;;;;;;5.47;3.53;;;;;;;16.79;47.39;99666.13;10316812;28;20240;-39
2023/05/07 02:49:55;;;;;;;4.73;3.50;;;;;;;16.01;48.92;99697.31;10317876;28;20850;-39
2023/05/07 02:54:57;;;;;;;3.87;3.47;;;;;;;14.66;50.63;99650.75;10309755;28;20229;-38
2023/05/07 02:59:59;;;;;;;3.80;3.20;;;;;;;15.94;48.37;99688.44;10315117;28;20226;-38
2023/05/07 03:05:01;;;;;;;3.50;3.20;;;;;;;16.31;49.75;99681.22;10314509;28;20230;-39
2023/05/07 03:10:04;;;;;;;5.37;3.50;;;;;;;16.49;48.92;99677.72;10313224;28;20226;-39
2023/05/07 03:15:06;;;;;;;4.73;3.33;;;;;;;16.27;48.92;99674.66;10318357;28;20235;-38
2023/05/07 03:20:09;;;;;;;4.57;3.40;;;;;;;16.58;48.56;99678.22;10311210;28;20241;-38
2023/05/07 03:25:12;;;;;;;3.77;3.43;;;;;;;15.98;49.15;99704.00;10316795;28;20604;-39
2023/05/07 03:30:14;;;;;;;4.63;3.47;;;;;;;15.66;49.22;99711.34;10308459;28;20369;-39
2023/05/07 03:35:16;;;;;;;4.70;3.77;;;;;;;15.71;49.92;99735.78;10311461;28;20244;-39
2023/05/07 03:40:17;;;;;;;3.50;2.90;;;;;;;16.52;48.58;99704.28;10314662;28;20230;-39
2023/05/07 03:45:19;;;;;;;4.37;3.83;;;;;;;15.72;50.10;99732.00;10312086;28;20349;-47
2023/05/07 03:50:21;;;;;;;5.93;3.30;;;;;;;15.49;50.22;99724.50;10324075;28;20230;-39
2023/05/07 03:55:23;;;;;;;4.30;3.53;;;;;;;14.57;51.88;99727.44;10321320;28;20233;-39
2023/05/07 04:00:24;;;;;;;4.60;4.07;;;;;;;14.93;51.57;99743.06;10319157;28;20234;-40
2023/05/07 04:05:26;;;;;;;4.93;4.30;;;;;;;15.49;51.35;99729.91;10324135;28;20596;-39
2023/05/07 04:10:29;;;;;;;6.13;3.87;;;;;;;15.49;50.14;99714.53;10325440;28;20226;-40
2023/05/07 04:15:31;;;;;;;5.67;4.07;;;;;;;14.96;51.04;99731.03;10317540;28;20253;-38
2023/05/07 04:20:36;;;;;;;4.97;4.40;;;;;;;15.28;51.10;99726.47;10322853;28;20230;-39
2023/05/07 04:25:38;;;;;;;4.57;3.43;;;;;;;15.17;50.51;99727.19;10329062;28;20235;-39
2023/05/07 04:30:41;;;;;;;5.30;3.90;;;;;;;15.47;50.30;99732.81;10318234;28;20738;-38
2023/05/07 04:35:43;;;;;;;4.97;4.23;;;;;;;14.99;51.71;99757.53;10313591;28;20325;-39
2023/05/07 04:40:44;;;;;;;4.73;4.23;;;;;;;15.36;50.65;99744.28;10321501;28;20264;-39
2023/05/07 04:45:46;;;;;;;5.87;4.53;;;;;;;15.99;49.78;99762.31;10315067;28;20597;-39
2023/05/07 04:50:49;;;;;;;4.73;4.23;;;;;;;14.66;52.03;99761.19;10321463;28;20323;-39
2023/05/07 04:55:57;;;;;;;4.80;3.87;;;;;;;15.76;49.95;99752.13;10321005;28;20241;-39
2023/05/07 05:01:00;;;;;;;4.83;3.77;;;;;;;17.53;47.63;99814.66;10318412;28;20340;-39
2023/05/07 05:06:02;;;;;;;4.50;4.10;;;;;;;16.57;48.30;99744.13;10317642;28;21014;-39
2023/05/07 05:11:04;;;;;;;5.37;3.97;;;;;;;17.33;47.74;99782.47;10322624;28;20320;-41
2023/05/07 05:16:06;;;;;;;6.43;4.00;;;;;;;15.92;49.48;99753.44;10320674;28;20241;-39
2023/05/07 05:21:08;;;;;;;4.17;3.77;;;;;;;17.76;46.93;99769.81;10321282;28;20317;-39
2023/05/07 05:26:09;;;;;;;3.80;3.50;;;;;;;16.99;48.21;99753.19;10313089;28;20244;-39
2023/05/07 05:31:11;;;;;;;3.83;3.43;;;;;;;15.61;50.74;99809.09;10317565;28;20237;-39
2023/05/07 05:36:13;;;;;;;4.23;3.73;;;;;;;17.32;47.96;99751.06;10316399;28;20236;-40
2023/05/07 05:41:15;;;;;;;5.43;3.60;;;;;;;16.88;47.89;99710.69;10318355;28;20230;-39
2023/05/07 05:46:16;;;;;;;4.07;3.60;;;;;;;15.92;49.96;99766.94;10314368;28;20230;-41
2023/05/07 05:51:20;;;;;;;5.63;3.37;;;;;;;16.33;49.22;99732.31;10321822;28;20238;-39
2023/05/07 05:56:22;;;;;;;3.57;3.23;;;;;;;17.18;48.13;99739.63;10312017;28;20269;-38
2023/05/07 06:01:24;;;;;;;4.70;3.90;;;;;;;15.50;51.03;99761.19;10320408;28;20245;-39
2023/05/07 06:06:25;;;;;;;3.93;3.43;;;;;;;16.61;49.23;99700.19;10320043;28;20230;-39
2023/05/07 06:11:27;;;;;;;4.27;3.20;;;;;;;16.65;49.58;99722.22;10314253;28;20237;-39
2023/05/07 06:16:29;;;;;;;4.67;3.40;;;;;;;17.21;48.70;99728.34;10315310;28;20240;-41
2023/05/07 06:21:31;;;;;;;4.47;4.07;;;;;;;17.22;48.22;99689.44;10314842;28;20370;-42
2023/05/07 06:26:33;;;;;;;4.43;3.30;;;;;;;16.96;48.96;99729.31;10319073;28;20571;-39
2023/05/07 06:31:35;;;;;;;3.40;3.10;;;;;;;17.30;48.88;99732.38;10308649;28;20240;-39
2023/05/07 06:36:37;;;;;;;4.60;3.20;;;;;;;18.60;46.55;99667.44;10321066;28;20369;-40
2023/05/07 06:41:38;;;;;;;3.67;3.33;;;;;;;19.68;44.81;99695.72;10319720;28;20704;-40
2023/05/07 06:46:41;;;;;;;4.80;3.10;;;;;;;19.45;45.73;99654.09;10312306;28;20694;-40
2023/05/07 06:51:43;;;;;;;3.77;3.33;;;;;;;18.33;47.41;99688.84;10315058;28;20236;-40
2023/05/07 06:56:44;;;;;;;4.30;3.70;;;;;;;18.94;46.38;99666.75;10320216;28;20237;-42
2023/05/07 07:01:46;;;;;;;4.43;3.40;;;;;;;18.68;46.72;99668.97;10314188;28;20238;-39
2023/05/07 07:06:48;;;;;;;4.23;3.10;;;;;;;18.86;45.95;99673.38;10314793;28;20244;-39
2023/05/07 07:11:50;;;;;;;3.77;3.13;;;;;;;19.38;44.96;99678.66;10317673;28;20273;-40
2023/05/07 07:16:51;;;;;;;3.57;3.27;;;;;;;17.82;46.95;99706.63;10318148;28;20715;-40
2023/05/07 07:21:53;;;;;;;4.93;3.83;;;;;;;17.93;47.44;99705.78;10321951;28;20237;-40
2023/05/07 07:26:55;;;;;;;4.87;3.60;;;;;;;17.72;47.23;99697.19;10324655;28;20240;-41
2023/05/07 07:31:56;;;;;;;6.00;4.37;;;;;;;16.92;49.61;99729.97;10322754;28;20230;-41
2023/05/07 07:36:58;;;;;;;4.93;3.70;;;;;;;18.50;47.04;99658.31;10319732;28;20244;-40
2023/05/07 07:42:00;;;;;;;4.97;3.83;;;;;;;19.20;46.33;99677.00;10314635;28;20938;-40
2023/05/07 07:47:02;;;;;;;5.37;3.80;;;;;;;18.93;46.13;99656.97;10321397;28;20600;-41
2023/05/07 07:52:04;;;;;;;3.77;3.43;;;;;;;19.90;45.43;99680.28;10326465;28;20321;-40
2023/05/07 07:57:06;;;;;;;4.03;3.63;;;;;;;19.90;44.74;99612.41;10318297;28;20241;-40
2023/05/07 08:02:07;;;;;;;3.93;3.63;;;;;;;18.92;46.40;99674.28;10322346;28;20705;-40
2023/05/07 08:07:10;;;;;;;4.80;3.90;;;;;;;19.35;46.35;99641.19;10321707;28;20787;-39
2023/05/07 08:12:12;;;;;;;7.30;6.57;;;;;;;20.17;44.94;99595.41;10320065;28;20241;-41
2023/05/07 08:17:15;;;;;;;5.40;4.37;;;;;;;18.26;48.34;99707.09;10323249;28;20256;-41
2023/05/07 08:22:18;;;;;;;4.53;3.97;;;;;;;19.27;47.01;99635.34;10326344;28;20241;-40
2023/05/07 08:27:20;;;;;;;8.27;4.23;;;;;;;19.63;46.50;99655.72;10314862;28;20234;-40
2023/05/07 08:32:21;;;;;;;4.17;3.77;;;;;;;18.55;46.73;99666.53;10321441;28;20230;-41
2023/05/07 08:37:23;;;;;;;5.20;4.00;;;;;;;18.88;47.00;99618.88;10318833;28;20275;-40
2023/05/07 08:42:28;;;;;;;6.23;3.70;;;;;;;19.26;45.47;99604.66;10317416;28;20230;-42
2023/05/07 08:47:43;;;;;;;4.77;3.50;;;;;;;19.78;44.92;99597.31;10318259;28;20226;-42
2023/05/07 08:52:45;;;;;;;4.40;3.60;;;;;;;19.26;46.71;99623.66;10321024;28;20229;-40
2023/05/07 08:57:47;;;;;;;4.30;3.85;;;;;;;20.63;44.20;99609.53;10315804;28;20662;-42
2023/05/07 09:02:49;;;;;;;4.27;3.87;;;;;;;19.42;45.89;99648.31;10311292;28;20245;-40
2023/05/07 09:07:51;;;;;;;5.77;4.23;;;;;;;20.39;45.08;99608.16;10311343;28;20249;-41
2023/05/07 09:12:55;;;;;;;4.67;4.20;;;;;;;21.59;44.03;99591.59;10317522;28;20241;-40
2023/05/07 09:18:03;;;;;;;6.47;4.10;;;;;;;21.13;44.15;99555.06;10316027;28;20241;-40
2023/05/07 09:23:07;;;;;;;6.27;4.60;;;;;;;20.43;45.43;99563.94;10320632;28;20226;-44
2023/05/07 09:28:10;;;;;;;4.35;3.95;;;;;;;20.89;45.01;99592.66;10317931;28;20230;-41
2023/05/07 09:33:12;;;;;;;6.03;4.22;;;;;;;21.47;43.38;99541.16;10316960;28;20230;-40
2023/05/07 09:38:13;;;;;;;4.93;3.85;;;;;;;21.54;43.40;99495.44;10317256;28;20229;-41
2023/05/07 09:43:15;;;;;;;6.82;4.30;;;;;;;20.25;44.42;99542.53;10322483;28;20238;-41
2023/05/07 09:48:18;;;;;;;4.28;3.88;;;;;;;20.24;44.51;99535.44;10278155;28;20639;-40
2023/05/07 09:53:21;;;;;;;4.57;4.03;;;;;;;22.22;43.28;99524.59;10308167;28;20237;-39
2023/05/07 09:58:25;;;;;;;5.57;4.18;;;;;;;21.03;44.29;99485.88;10274056;28;20226;-42
2023/05/07 10:03:28;;;;;;;4.63;3.72;;;;;;;22.36;44.47;99497.66;10286503;28;20218;-42
2023/05/07 10:08:30;;;;;;;4.75;4.35;;;;;;;22.37;43.01;99481.03;10311280;28;20226;-41
2023/05/07 10:13:35;;;;;;;4.82;4.32;;;;;;;22.07;43.55;99501.69;10309091;28;20740;-43
2023/05/07 10:18:40;;;;;;;5.22;4.68;;;;;;;22.78;43.25;99470.16;10287716;28;20259;-39
2023/05/07 10:23:46;;;;;;;6.47;4.13;;;;;;;22.32;41.95;99416.44;10304422;28;21063;-40
2023/05/07 10:28:54;;;;;;;4.45;3.90;;;;;;;23.76;41.24;99420.78;10310913;28;20253;-42
2023/05/07 10:33:57;;;;;;;6.22;4.20;;;;;;;23.37;41.10;99426.94;10306860;28;20242;-39
2023/05/07 10:38:59;;;;;;;5.07;4.57;;;;;;;21.10;43.54;99496.53;10267466;28;20236;-43
2023/05/07 10:44:02;;;;;;;4.70;4.05;;;;;;;23.14;42.99;99398.38;10275839;28;20234;-40
2023/05/07 10:49:05;;;;;;;4.57;4.18;;;;;;;22.85;43.00;99437.16;10313548;28;20245;-42
2023/05/07 10:54:09;;;;;;;4.63;4.03;;;;;;;24.27;41.40;99389.56;10317335;28;20234;-41
2023/05/07 10:59:20;;;;;;;6.38;4.30;;;;;;;24.26;40.85;99336.84;10313934;28;20229;-41
2023/05/07 11:06:28;;;;;;;5.43;3.90;;;;;;;21.75;44.62;99441.91;10221291;28;21472;-72
2023/05/07 11:11:50;;;;;;;6.53;4.50;;;;;;;22.11;44.16;99426.47;10175749;28;20735;-72
2023/05/07 11:17:02;;;;;;;7.85;4.30;;;;;;;22.30;44.44;99428.69;10202699;28;20235;-72
2023/05/07 11:22:04;;;;;;;4.20;3.80;;;;;;;22.72;43.84;99413.97;10202493;28;20228;-72
2023/05/07 11:27:06;;;;;;;5.13;3.72;;;;;;;22.99;42.43;99410.91;10205685;28;20255;-72
2023/05/07 11:32:08;;;;;;;5.75;4.30;;;;;;;23.11;42.73;99393.47;10204333;28;20265;-75
2023/05/07 11:37:12;;;;;;;5.45;4.45;;;;;;;23.27;43.35;99397.78;10204231;28;20228;-73
2023/05/07 11:42:37;;;;;;;5.93;4.50;;;;;;;23.27;43.01;99422.34;10202922;28;20251;-71
2023/05/07 11:47:41;;;;;;;6.88;5.50;;;;;;;22.77;43.81;99437.72;10204955;28;20794;-74
2023/05/07 11:52:51;;;;;;;7.22;6.50;;;;;;;23.30;43.04;99418.22;10201678;28;20247;-74
2023/05/07 11:57:53;;;;;;;9.07;6.45;;;;;;;24.29;40.68;99388.22;10207733;28;20254;-74
2023/05/07 12:02:54;;;;;;;6.70;6.10;;;;;;;22.40;42.87;99450.50;10220220;28;20248;-75
2023/05/07 12:07:57;;;;;;;7.75;6.10;;;;;;;22.46;43.22;99452.13;10238358;28;20238;-73
2023/05/07 12:12:59;;;;;;;6.40;5.80;;;;;;;22.66;43.15;99424.09;10239153;28;20230;-74
2023/05/07 12:18:01;;;;;;;11.63;6.00;;;;;;;22.27;42.52;99419.16;10213717;28;20234;-74
2023/05/07 12:23:03;;;;;;;6.88;5.40;;;;;;;23.02;42.01;99434.13;10208145;28;20315;-73
2023/05/07 12:28:06;;;;;;;6.40;5.78;;;;;;;22.68;41.99;99410.97;10212315;28;20243;-73
2023/05/07 12:33:08;;;;;;;6.28;5.68;;;;;;;22.94;41.36;99412.84;10210839;28;20250;-73
2023/05/07 12:38:12;;;;;;;5.90;4.60;;;;;;;24.03;41.04;99368.41;10210942;28;20285;-73
2023/05/07 12:43:20;;;;;;;5.97;4.60;;;;;;;23.42;41.65;99400.44;10211488;28;20232;-73
2023/05/07 12:48:23;;;;;;;5.05;4.25;;;;;;;23.63;40.79;99367.59;10212347;28;20243;-73
2023/05/07 12:53:26;;;;;;;5.15;4.28;;;;;;;23.36;41.51;99389.81;10213607;28;20224;-73
2023/05/07 12:58:30;;;;;;;5.70;4.60;;;;;;;22.96;40.92;99411.50;10210283;28;20236;-73
2023/05/07 13:03:33;;;;;;;4.60;4.00;;;;;;;23.80;40.98;99410.91;10217014;28;20236;-73
2023/05/07 13:08:39;;;;;;;4.05;3.35;;;;;;;23.08;42.36;99424.88;10207558;28;20771;-72
2023/05/07 13:13:42;;;;;;;4.20;3.80;;;;;;;22.17;43.42;99424.59;10206755;28;20223;-73
2023/05/07 13:18:45;;;;;;;4.20;3.75;;;;;;;23.44;42.59;99373.66;10210974;28;20246;-72
2023/05/07 13:23:47;;;;;;;3.53;2.78;;;;;;;22.90;43.15;99375.22;10209145;28;20248;-72
2023/05/07 13:28:49;;;;;;;3.85;3.30;;;;;;;22.41;44.08;99405.81;10204783;28;20250;-73
2023/05/07 13:33:50;;;;;;;4.43;2.58;;;;;;;23.14;43.23;99422.94;10204428;28;20303;-72
2023/05/07 13:38:52;;;;;;;6.35;3.90;;;;;;;21.77;44.87;99459.63;10208984;28;20701;-72
2023/05/07 13:43:53;;;;;;;6.63;4.78;;;;;;;21.10;46.05;99501.16;10212148;28;20235;-71
2023/05/07 13:48:55;;;;;;;6.57;4.47;;;;;;;21.12;46.00;99467.19;10208662;28;20250;-70
2023/05/07 13:53:58;;;;;;;6.35;4.97;;;;;;;21.75;44.87;99475.41;10206842;28;20306;-65
2023/05/07 13:59:00;;;;;;;5.35;4.43;;;;;;;22.13;44.68;99456.19;10209023;28;20236;-67
2023/05/07 14:04:01;;;;;;;4.40;3.53;;;;;;;21.14;45.80;99499.53;10211936;28;20239;-66
2023/05/07 14:09:03;;;;;;;3.80;2.42;;;;;;;21.65;42.92;99482.72;10208782;28;20736;-68
2023/05/07 14:14:05;;;;;;;4.45;2.50;;;;;;;21.68;42.89;99463.94;10208163;28;20242;-68
2023/05/07 14:19:07;;;;;;;2.85;2.50;;;;;;;21.74;43.75;99453.88;10202216;28;20248;-68
2023/05/07 14:24:09;;;;;;;5.20;2.50;;;;;;;21.22;45.10;99499.91;10209313;28;20244;-67
2023/05/07 14:29:11;;;;;;;3.60;2.60;;;;;;;21.62;45.54;99521.38;10204961;28;20236;-68
2023/05/07 14:34:13;;;;;;;4.05;2.97;;;;;;;19.77;49.31;99520.47;10207489;28;20231;-67
2023/05/07 14:39:14;;;;;;;4.53;3.15;;;;;;;19.88;50.85;99562.16;10209989;28;20238;-67
2023/05/07 14:44:16;;;;;;;6.57;3.33;;;;;;;20.28;48.65;99498.56;10209580;28;20246;-68
2023/05/07 14:49:18;;;;;;;6.05;2.88;;;;;;;20.65;48.15;99541.31;10211365;28;20643;-69
2023/05/07 14:54:19;;;;;;;3.38;2.65;;;;;;;21.57;46.54;99505.81;10209566;28;20261;-68
2023/05/07 14:59:21;;;;;;;3.67;2.70;;;;;;;21.30;46.08;99514.91;10210522;28;20235;-66
2023/05/07 15:04:24;;;;;;;4.47;2.20;;;;;;;22.48;43.59;99485.38;10205233;28;20902;-68
2023/05/07 15:09:26;;;;;;;3.28;2.55;;;;;;;21.51;45.00;99539.53;10202799;28;20755;-67
2023/05/07 15:14:27;;;;;;;4.57;2.80;;;;;;;21.64;46.17;99533.63;10206926;28;20239;-66
2023/05/07 15:19:30;;;;;;;3.30;2.50;;;;;;;20.68;46.15;99589.69;10206468;28;20223;-66
2023/05/07 15:24:31;;;;;;;2.65;2.45;;;;;;;20.63;46.50;99584.22;10210693;28;20242;-64
2023/05/07 15:29:33;;;;;;;2.78;2.35;;;;;;;21.54;44.61;99509.06;10209155;28;20604;-67
2023/05/07 15:34:35;;;;;;;5.32;2.97;;;;;;;21.33;45.15;99535.34;10205119;28;20243;-67
2023/05/07 15:39:36;;;;;;;5.85;3.38;;;;;;;20.77;46.05;99581.97;10208384;28;20223;-67
2023/05/07 15:44:39;;;;;;;4.13;3.10;;;;;;;19.97;47.21;99582.34;10203335;28;20739;-67
2023/05/07 15:49:41;;;;;;;3.72;2.95;;;;;;;20.74;46.47;99552.53;10205696;28;20232;-67
2023/05/07 15:54:43;;;;;;;3.25;2.83;;;;;;;20.04;47.44;99629.19;10215602;28;20240;-68
2023/05/07 15:59:44;;;;;;;3.35;2.65;;;;;;;19.68;47.60;99577.09;10211895;28;20247;-65
2023/05/07 16:04:46;;;;;;;3.13;2.90;;;;;;;19.85;47.71;99623.19;10221659;28;20247;-66
2023/05/07 16:09:48;;;;;;;4.15;3.00;;;;;;;19.46;47.92;99627.75;10217834;28;20248;-65
2023/05/07 16:14:50;;;;;;;4.15;2.70;;;;;;;18.64;49.18;99629.84;10214113;28;20289;-67
2023/05/07 16:19:52;;;;;;;3.83;2.80;;;;;;;18.81;49.17;99671.38;10217897;28;20247;-66
2023/05/07 16:24:54;;;;;;;3.95;2.88;;;;;;;19.13;49.25;99672.78;10217660;28;20241;-67
2023/05/07 16:29:55;;;;;;;4.03;3.28;;;;;;;19.11;49.65;99629.63;10216404;28;20743;-67
2023/05/07 16:34:57;;;;;;;3.58;2.92;;;;;;;20.25;47.13;99575.94;10222113;28;20235;-67
2023/05/07 16:40:06;;;;;;;3.35;3.05;;;;;;;19.71;48.65;99665.38;10223903;28;20242;-68
2023/05/07 16:45:08;;;;;;;4.85;2.72;;;;;;;20.03;48.99;99656.59;10223261;28;20238;-68
2023/05/07 16:50:10;;;;;;;3.23;2.10;;;;;;;17.62;52.96;99740.22;10224249;28;20263;-68
2023/05/07 16:55:12;;;;;;;2.70;2.23;;;;;;;19.98;48.76;99662.75;10220154;28;20286;-68
2023/05/07 17:00:14;;;;;;;2.70;2.50;;;;;;;17.90;52.17;99727.94;10219619;28;20247;-67
2023/05/07 17:05:16;;;;;;;3.47;2.43;;;;;;;17.47;54.12;99765.00;10221115;28;20235;-67
2023/05/07 17:10:19;;;;;;;5.33;2.90;;;;;;;17.24;55.82;99808.19;10217606;28;20245;-65
2023/05/07 17:15:20;;;;;;;4.63;3.20;;;;;;;16.51;57.69;99823.34;10219787;28;20956;-66
2023/05/07 17:20:22;;;;;;;4.70;3.30;;;;;;;17.16;57.30;99812.03;10218662;28;20228;-66
2023/05/07 17:25:24;;;;;;;3.60;3.30;;;;;;;16.83;57.46;99824.03;10218292;28;20235;-67
2023/05/07 17:30:25;;;;;;;4.40;3.30;;;;;;;15.70;59.73;99794.28;10222874;28;20247;-67
2023/05/07 17:35:27;;;;;;;7.33;3.90;;;;;;;16.09;59.23;99826.56;10216180;28;20314;-66
2023/05/07 17:40:29;;;;;;;5.27;3.40;;;;;;;16.23;59.38;99851.63;10214722;28;20742;-65
2023/05/07 17:45:31;;;;;;;6.80;3.53;;;;;;;16.19;58.86;99861.19;10216362;28;20238;-67
2023/05/07 17:50:33;;;;;;;9.83;3.63;;;;;;;16.03;58.36;99855.28;10213604;28;20232;-65
2023/05/07 17:55:39;;;;;;;4.00;3.30;;;;;;;17.76;56.52;99880.75;10211512;28;20250;-65
2023/05/07 18:00:40;;;;;;;4.87;3.37;;;;;;;18.12;56.11;99906.03;10213936;28;20244;-66
2023/05/07 18:05:42;;;;;;;3.87;3.20;;;;;;;17.34;57.14;99914.78;10214964;28;20239;-65
2023/05/07 18:10:44;;;;;;;4.67;3.40;;;;;;;16.79;58.98;99941.75;10210712;28;20240;-66
2023/05/07 18:15:45;;;;;;;6.27;3.93;;;;;;;17.75;56.43;99892.63;10212386;28;20645;-65
2023/05/07 18:20:50;;;;;;;7.20;3.50;;;;;;;18.62;55.04;99909.22;10217380;28;20239;-66
2023/05/07 18:25:52;;;;;;;3.10;2.80;;;;;;;18.03;55.96;99914.50;10212141;28;20825;-66
2023/05/07 18:30:54;;;;;;;4.20;3.37;;;;;;;18.55;54.44;99902.25;10210890;28;20223;-68
2023/05/07 18:35:56;;;;;;;4.80;4.10;;;;;;;19.87;51.83;99881.75;10212932;28;20623;-65
2023/05/07 18:41:04;;;;;;;4.80;4.07;;;;;;;19.65;51.99;99845.47;10214481;28;20318;-66
2023/05/07 18:46:06;;;;;;;4.27;3.30;;;;;;;19.26;51.88;99821.66;10213436;28;20698;-67
2023/05/07 18:51:11;;;;;;;3.13;2.70;;;;;;;17.83;54.06;99843.59;10215544;28;20239;-67
2023/05/07 18:56:13;;;;;;;3.47;2.80;;;;;;;18.55;54.05;99883.28;10212763;28;20232;-67
2023/05/07 19:01:15;;;;;;;3.27;2.93;;;;;;;17.52;55.75;99897.69;10216543;28;20237;-68
2023/05/07 19:06:16;;;;;;;3.43;3.13;;;;;;;17.68;55.12;99873.78;10209938;28;20385;-66
2023/05/07 19:11:18;;;;;;;3.93;3.10;;;;;;;18.97;53.57;99907.59;10215771;28;20751;-68
2023/05/07 19:16:20;;;;;;;3.73;2.83;;;;;;;17.55;54.76;99891.81;10210851;28;20234;-67
2023/05/07 19:21:21;;;;;;;3.07;2.80;;;;;;;18.90;52.46;99867.00;10210103;28;20235;-69
2023/05/07 19:26:23;;;;;;;2.63;2.43;;;;;;;18.21;53.51;99921.72;10221333;28;20247;-68
2023/05/07 19:31:26;;;;;;;2.93;2.43;;;;;;;19.01;51.43;99876.22;10219153;28;20740;-66
2023/05/07 19:36:28;;;;;;;3.03;2.60;;;;;;;19.55;51.02;99889.50;10218360;28;21053;-66
2023/05/07 19:41:30;;;;;;;4.03;2.60;;;;;;;20.12;49.81;99918.53;10218826;28;20257;-66
2023/05/07 19:46:31;;;;;;;3.00;2.60;;;;;;;20.60;48.51;99860.13;10216227;28;20235;-68
2023/05/07 19:51:33;;;;;;;5.13;3.63;;;;;;;18.77;52.35;99926.91;10216298;28;20254;-68
2023/05/07 19:56:35;;;;;;;3.83;2.80;;;;;;;17.86;54.84;99963.03;10217263;28;20231;-66
2023/05/07 20:01:37;;;;;;;2.97;2.60;;;;;;;17.70;54.90;99950.97;10217964;28;20672;-68
2023/05/07 20:06:39;;;;;;;3.30;3.00;;;;;;;18.89;52.91;99949.41;10217606;28;20245;-67
2023/05/07 20:11:41;;;;;;;4.10;3.10;;;;;;;20.42;49.25;99877.50;10216940;28;20231;-67
2023/05/07 20:16:43;;;;;;;3.10;2.80;;;;;;;17.77;54.43;99950.91;10221941;28;20246;-68
2023/05/07 20:21:44;;;;;;;4.07;3.27;;;;;;;18.49;53.02;99897.78;10218762;28;20238;-68
2023/05/07 20:26:46;;;;;;;5.03;3.47;;;;;;;19.86;51.00;99939.00;10222943;28;20235;-68
2023/05/07 20:31:48;;;;;;;4.83;3.27;;;;;;;18.28;54.24;99975.81;10217783;28;20584;-67
2023/05/07 20:36:49;;;;;;;4.03;3.63;;;;;;;18.60;53.25;99962.00;10219401;28;20236;-68
2023/05/07 20:41:52;;;;;;;5.00;4.20;;;;;;;18.23;53.97;99983.78;10217580;28;20235;-68
2023/05/07 20:46:53;;;;;;;4.43;4.03;;;;;;;17.90;54.95;99983.19;10218103;28;20235;-68
2023/05/07 20:51:55;;;;;;;4.87;3.80;;;;;;;17.21;56.43;99987.09;10219421;28;20237;-68
2023/05/07 20:56:58;;;;;;;4.67;3.77;;;;;;;19.77;51.43;99971.13;10219808;28;20234;-68
2023/05/07 21:02:01;;;;;;;7.53;4.10;;;;;;;19.52;51.43;99934.25;10213385;28;20353;-68
2023/05/07 21:07:03;;;;;;;6.83;4.03;;;;;;;17.55;55.66;100004.63;10220069;28;20246;-68
2023/05/07 21:12:05;;;;;;;4.70;4.30;;;;;;;17.14;56.85;99995.28;10218843;28;20262;-68
2023/05/07 21:17:07;;;;;;;5.17;4.30;;;;;;;18.15;54.51;99963.28;10223062;28;20247;-68
2023/05/07 21:22:09;;;;;;;5.23;4.50;;;;;;;19.43;52.28;99979.09;10219702;28;20674;-68
2023/05/07 21:27:10;;;;;;;6.20;4.23;;;;;;;19.18;53.09;100007.31;10221304;28;20810;-68
2023/05/07 21:32:12;;;;;;;4.30;3.90;;;;;;;19.67;51.43;99988.06;10223330;28;20231;-68
2023/05/07 21:37:14;;;;;;;4.50;4.00;;;;;;;20.00;50.77;99986.50;10222111;28;20595;-68
2023/05/07 21:42:16;;;;;;;4.83;4.03;;;;;;;20.46;49.68;100008.28;10224285;28;20232;-68
2023/05/07 21:47:18;;;;;;;5.53;5.00;;;;;;;18.85;52.59;100013.28;10219589;28;20254;-68
2023/05/07 21:52:24;;;;;;;5.67;4.33;;;;;;;18.20;53.41;99946.34;10221435;28;20297;-68
2023/05/07 21:57:26;;;;;;;7.87;5.07;;;;;;;16.61;57.38;99993.84;10222237;28;20726;-68
2023/05/07 22:02:27;;;;;;;6.50;5.20;;;;;;;18.93;53.70;100009.44;10225094;28;20281;-68
2023/05/07 22:07:30;;;;;;;6.73;5.00;;;;;;;17.77;54.94;99980.66;10222834;28;20227;-68
2023/05/07 22:12:32;;;;;;;6.10;4.93;;;;;;;17.42;56.00;99999.38;10221014;28;20247;-68
2023/05/07 22:17:34;;;;;;;6.00;5.40;;;;;;;18.68;54.19;100013.16;10224954;28;20244;-68
2023/05/07 22:22:49;;;;;;;7.93;6.33;;;;;;;17.46;56.49;100028.47;10223417;28;20223;-68
2023/05/07 22:27:53;;;;;;;7.20;6.17;;;;;;;17.76;55.99;100027.72;10223023;28;20242;-68
2023/05/07 22:32:54;;;;;;;9.90;6.60;;;;;;;16.88;57.59;100004.44;10226167;28;20247;-68
2023/05/07 22:37:57;;;;;;;7.33;6.63;;;;;;;18.83;53.90;100040.63;10227088;28;20807;-68
2023/05/07 22:42:58;;;;;;;8.60;6.93;;;;;;;17.53;56.05;100017.56;10224951;28;20235;-68
2023/05/07 22:48:00;;;;;;;9.20;6.87;;;;;;;17.21;56.79;100035.75;10222026;28;20242;-69
2023/05/07 22:53:02;;;;;;;9.80;7.00;;;;;;;18.65;54.39;100038.81;10221918;28;20581;-68
2023/05/07 22:58:04;;;;;;;9.13;7.57;;;;;;;16.24;58.85;100032.25;10226664;28;20239;-68
2023/05/07 23:03:06;;;;;;;9.40;7.60;;;;;;;16.48;58.52;100056.88;10224069;28;20247;-68
2023/05/07 23:08:08;;;;;;;8.60;7.67;;;;;;;16.08;59.86;100051.69;10222819;28;20363;-69
2023/05/07 23:13:15;;;;;;;9.03;8.13;;;;;;;17.01;57.86;100057.59;10224991;28;20720;-68
2023/05/07 23:18:17;;;;;;;10.10;6.83;;;;;;;18.55;54.65;100078.41;10220891;28;20243;-68
2023/05/07 23:23:20;;;;;;;8.63;7.30;;;;;;;17.69;55.35;100019.69;10222741;28;20828;-68
2023/05/07 23:28:21;;;;;;;9.63;7.93;;;;;;;17.12;56.70;100055.00;10225246;28;20304;-68